createdAt,value
2019-02-09T00:00:15.940Z,69.93
2019-02-09T00:05:12.081Z,69.55
2019-02-09T00:10:08.529Z,69.69
2019-02-09T00:15:06.588Z,69.43
2019-02-09T00:20:28.926Z,69.40
2019-02-09T00:25:24.917Z,70.47
2019-02-09T00:30:24.285Z,71.60
2019-02-09T00:35:20.988Z,74.44
2019-02-09T00:40:20.685Z,77.06
2019-02-09T00:45:18.271Z,79.00
2019-02-09T00:50:15.761Z,79.49
2019-02-09T00:55:15.361Z,79.40
2019-02-09T01:00:35.791Z,79.07
2019-02-09T01:05:40.875Z,78.84
2019-02-09T01:10:37.299Z,79.13
2019-02-09T01:15:33.197Z,79.40
2019-02-09T01:20:29.175Z,79.34
2019-02-09T01:25:25.161Z,81.42
2019-02-09T01:30:25.221Z,82.13
2019-02-09T01:35:21.559Z,83.42
2019-02-09T01:40:19.349Z,84.29
2019-02-09T01:45:17.935Z,84.92
2019-02-09T01:50:16.523Z,85.62
2019-02-09T01:55:12.908Z,86.37
2019-02-09T02:00:14.392Z,86.87
2019-02-09T02:05:11.981Z,86.92
2019-02-09T02:10:11.707Z,87.39
2019-02-09T02:15:13.750Z,87.90
2019-02-09T02:20:13.457Z,87.78
2019-02-09T02:25:09.389Z,88.04
2019-02-09T02:30:09.078Z,87.96
2019-02-09T02:35:07.673Z,87.98
2019-02-09T02:40:06.783Z,87.94
2019-02-09T02:45:05.754Z,87.04
2019-02-09T02:50:03.045Z,87.05
2019-02-09T02:54:58.928Z,86.92
2019-02-09T02:59:54.817Z,86.70
2019-02-09T03:04:50.693Z,86.84
2019-02-09T03:09:46.585Z,87.32
2019-02-09T03:14:42.489Z,87.66
2019-02-09T03:19:38.376Z,87.20
2019-02-09T03:24:34.960Z,87.51
2019-02-09T03:29:30.806Z,87.46
2019-02-09T03:34:26.695Z,87.29
2019-02-09T03:39:22.580Z,87.02
2019-02-09T03:44:18.463Z,86.71
2019-02-09T03:49:14.348Z,86.52
2019-02-09T03:54:10.902Z,86.21
2019-02-09T03:59:06.745Z,85.71
2019-02-09T04:04:03.229Z,85.66
2019-02-09T04:08:59.147Z,85.11
2019-02-09T04:13:55.033Z,85.13
2019-02-09T04:18:50.920Z,84.57
2019-02-09T04:23:53.729Z,84.21
2019-02-09T04:28:49.618Z,84.42
2019-02-09T04:33:45.502Z,84.38
2019-02-09T04:38:41.432Z,84.37
2019-02-09T04:43:37.331Z,84.56
2019-02-09T04:48:33.229Z,84.56
2019-02-09T04:53:30.693Z,83.79
2019-02-09T04:58:26.791Z,83.48
2019-02-09T05:03:22.848Z,82.67
2019-02-09T05:08:18.772Z,82.07
2019-02-09T05:13:14.666Z,81.54
2019-02-09T05:18:10.548Z,81.28
2019-02-09T05:23:06.465Z,81.31
2019-02-09T05:28:02.347Z,81.15
2019-02-09T05:33:00.543Z,80.63
2019-02-09T05:37:56.160Z,80.45
2019-02-09T05:42:52.044Z,80.48
2019-02-09T05:47:48.380Z,80.17
2019-02-09T05:52:44.572Z,79.28
2019-02-09T05:57:40.557Z,78.89
2019-02-09T06:02:36.440Z,78.29
2019-02-09T06:07:32.323Z,77.88
2019-02-09T06:12:28.207Z,76.98
2019-02-09T06:17:24.096Z,76.98
2019-02-09T06:22:19.979Z,76.56
2019-02-09T06:27:15.874Z,76.64
2019-02-09T06:32:13.050Z,76.90
2019-02-09T06:37:08.945Z,77.11
2019-02-09T06:42:04.853Z,78.00
2019-02-09T06:47:00.749Z,78.31
2019-02-09T06:51:57.049Z,78.36
2019-02-09T06:56:55.371Z,78.29
2019-02-09T07:01:51.363Z,78.54
2019-02-09T07:06:47.264Z,78.25
2019-02-09T07:11:43.157Z,78.02
2019-02-09T07:16:39.069Z,76.58
2019-02-09T07:21:34.955Z,76.62
2019-02-09T07:26:30.843Z,76.43
2019-02-09T07:31:26.749Z,76.27
2019-02-09T07:36:22.608Z,75.02
2019-02-09T07:41:18.493Z,74.87
2019-02-09T07:46:14.476Z,74.09
2019-02-09T07:51:10.364Z,74.14
2019-02-09T07:56:07.317Z,74.18
2019-02-09T08:01:03.479Z,73.05
2019-02-09T08:05:59.368Z,73.28
2019-02-09T08:10:55.620Z,76.19
2019-02-09T08:15:51.604Z,75.59
2019-02-09T08:20:47.493Z,74.95
2019-02-09T08:25:43.480Z,74.24
2019-02-09T08:30:47.518Z,72.99
2019-02-09T08:35:43.513Z,72.36
2019-02-09T08:40:39.535Z,72.29
2019-02-09T08:45:35.474Z,72.31
2019-02-09T08:50:37.568Z,70.09
2019-02-09T08:55:33.450Z,71.23
2019-02-09T09:00:34.144Z,71.42
2019-02-09T09:05:30.038Z,71.94
2019-02-09T09:10:30.013Z,72.39
2019-02-09T09:15:38.576Z,73.24
2019-02-09T09:20:40.118Z,72.51
2019-02-09T09:25:36.103Z,71.91
2019-02-09T09:30:31.992Z,71.50
2019-02-09T09:35:28.081Z,71.83
2019-02-09T09:40:39.058Z,71.63
2019-02-09T09:45:36.851Z,72.26
2019-02-09T09:50:36.441Z,70.45
2019-02-09T09:55:33.386Z,69.74
2019-02-09T10:00:29.478Z,69.22
2019-02-09T10:05:25.561Z,69.59
2019-02-09T10:10:21.585Z,69.80
2019-02-09T10:15:25.414Z,67.33
2019-02-09T10:20:23.104Z,67.04
2019-02-09T10:25:19.392Z,67.96
2019-02-09T10:30:21.344Z,67.38
2019-02-09T10:35:18.044Z,68.67
2019-02-09T10:40:17.140Z,71.51
2019-02-09T10:45:19.591Z,73.13
2019-02-09T10:50:24.876Z,74.00
2019-02-09T10:55:20.899Z,70.14
2019-02-09T11:00:32.450Z,68.32
2019-02-09T11:05:28.643Z,68.38
2019-02-09T11:10:24.838Z,66.84
2019-02-09T11:15:21.835Z,65.69
2019-02-09T11:20:19.332Z,66.24
2019-02-09T11:25:24.759Z,65.11
2019-02-09T11:30:26.576Z,64.56
2019-02-09T11:35:22.668Z,64.19
2019-02-09T11:40:21.663Z,63.41
2019-02-09T11:45:22.435Z,63.13
2019-02-09T11:50:18.539Z,63.66
2019-02-09T11:55:16.556Z,62.81
2019-02-09T12:00:19.344Z,62.76
2019-02-09T12:05:15.346Z,62.48
2019-02-09T12:10:16.869Z,62.51
2019-02-09T12:15:37.302Z,62.78
2019-02-09T12:20:33.295Z,62.98
2019-02-09T12:25:32.208Z,62.58
2019-02-09T12:30:33.130Z,62.90
2019-02-09T12:35:29.120Z,62.99
2019-02-09T12:40:29.803Z,63.23
2019-02-09T12:45:27.927Z,63.95
2019-02-09T12:50:25.450Z,63.79
2019-02-09T12:55:21.522Z,63.28
2019-02-09T13:00:20.520Z,62.07
2019-02-09T13:05:16.517Z,60.05
2019-02-09T13:10:14.506Z,59.80
2019-02-09T13:15:13.500Z,58.67
2019-02-09T13:20:13.021Z,60.15
2019-02-09T13:25:09.712Z,60.28
2019-02-09T13:30:09.427Z,59.93
2019-02-09T13:35:46.974Z,59.93
2019-02-09T13:40:42.864Z,60.12
2019-02-09T13:46:20.396Z,60.41
2019-02-09T13:51:16.288Z,61.18
2019-02-09T13:56:12.174Z,64.30
2019-02-09T14:01:08.168Z,65.70
2019-02-09T14:06:08.281Z,68.53
2019-02-09T14:11:02.083Z,68.94
2019-02-09T14:15:57.971Z,70.82
2019-02-09T14:20:53.865Z,69.27
2019-02-09T14:25:49.760Z,68.01
2019-02-09T14:30:45.747Z,67.80
2019-02-09T14:35:41.840Z,67.42
2019-02-09T14:40:37.843Z,66.29
2019-02-09T14:46:15.384Z,66.51
2019-02-09T14:51:11.272Z,65.48
2019-02-09T14:56:07.158Z,65.67
2019-02-09T15:01:44.734Z,65.16
2019-02-09T15:06:40.713Z,64.48
2019-02-09T15:11:36.608Z,64.80
2019-02-09T15:16:32.697Z,64.86
2019-02-09T15:21:28.597Z,65.16
2019-02-09T15:26:24.473Z,64.75
2019-02-09T15:31:20.358Z,65.42
2019-02-09T15:36:16.244Z,65.65
2019-02-09T15:41:12.130Z,64.98
2019-02-09T15:46:08.018Z,64.94
2019-02-09T15:51:04.106Z,64.32
2019-02-09T15:56:00.005Z,63.91
2019-02-09T16:00:55.891Z,63.78
2019-02-09T16:05:51.780Z,65.48
2019-02-09T16:10:47.673Z,65.30
2019-02-09T16:15:44.111Z,66.01
2019-02-09T16:20:40.525Z,66.90
2019-02-09T16:25:37.005Z,67.47
2019-02-09T16:30:32.868Z,68.12
2019-02-09T16:36:10.461Z,68.67
2019-02-09T16:41:06.348Z,69.18
2019-02-09T16:46:02.231Z,69.05
2019-02-09T16:50:58.117Z,69.58
2019-02-09T16:55:54.008Z,70.39
2019-02-09T17:00:49.897Z,71.13
2019-02-09T17:05:45.779Z,71.92
2019-02-09T17:10:41.899Z,72.30
2019-02-09T17:15:37.786Z,72.68
2019-02-09T17:20:33.809Z,72.80
2019-02-09T17:25:29.702Z,72.59
2019-02-09T17:31:07.499Z,72.80
2019-02-09T17:36:45.004Z,72.02
2019-02-09T17:41:40.893Z,71.93
2019-02-09T17:46:36.780Z,72.22
2019-02-09T17:51:33.414Z,72.02
2019-02-09T17:56:29.265Z,71.92
2019-02-09T18:01:25.159Z,72.26
2019-02-09T18:06:21.047Z,72.77
2019-02-09T18:11:16.959Z,72.86
2019-02-09T18:16:12.948Z,72.66
2019-02-09T18:21:08.941Z,73.00
2019-02-09T18:26:04.799Z,72.93
2019-02-09T18:31:00.691Z,72.74
2019-02-09T18:36:16.443Z,72.07
2019-02-09T18:41:12.337Z,71.80
2019-02-09T18:46:08.320Z,71.62
2019-02-09T18:51:04.303Z,70.82
2019-02-09T18:56:00.850Z,70.63
2019-02-09T19:00:56.710Z,70.43
2019-02-09T19:05:52.706Z,70.45
2019-02-09T19:10:48.621Z,70.62
2019-02-09T19:15:44.704Z,70.70
2019-02-09T19:21:00.465Z,71.15
2019-02-09T19:25:57.564Z,71.04
2019-02-09T19:30:54.138Z,71.13
2019-02-09T19:35:50.042Z,71.14
2019-02-09T19:40:45.950Z,71.62
2019-02-09T19:45:41.846Z,71.35
2019-02-09T19:50:37.738Z,71.39
2019-02-09T19:55:55.402Z,70.96
2019-02-09T20:00:51.287Z,70.73
2019-02-09T20:05:47.196Z,70.65
2019-02-09T20:10:43.098Z,70.62
2019-02-09T20:16:21.108Z,70.52
2019-02-09T20:26:42.248Z,70.49
2019-02-09T20:31:39.318Z,70.63
2019-02-09T20:41:38.958Z,69.40
2019-02-09T20:46:34.956Z,69.42
2019-02-09T20:51:30.863Z,69.09
2019-02-09T20:56:26.757Z,69.14
2019-02-09T21:01:22.790Z,69.38
2019-02-09T21:06:26.345Z,69.08
2019-02-09T21:11:22.333Z,69.45
2019-02-09T21:16:18.392Z,69.53
2019-02-09T21:21:14.371Z,69.81
2019-02-09T21:26:10.374Z,69.84
2019-02-09T21:31:06.382Z,70.39
2019-02-09T21:36:22.149Z,70.51
2019-02-09T21:41:18.074Z,70.98
2019-02-09T21:46:13.968Z,71.04
2019-02-09T21:51:09.970Z,71.23
2019-02-09T21:56:05.869Z,71.21
2019-02-09T22:01:01.946Z,71.28
2019-02-09T22:05:57.843Z,71.38
2019-02-09T22:10:53.797Z,71.15
2019-02-09T22:15:49.698Z,71.28
2019-02-09T22:20:52.491Z,71.44
2019-02-09T22:25:43.406Z,71.25
2019-02-09T22:30:39.336Z,71.58
2019-02-09T22:35:35.899Z,71.24
2019-02-09T22:41:13.574Z,71.30
2019-02-09T22:46:09.478Z,71.29
2019-02-09T22:51:05.487Z,71.23
2019-02-09T22:56:01.499Z,71.30
2019-02-09T23:01:39.395Z,71.53
2019-02-09T23:06:57.050Z,71.36
2019-02-09T23:11:52.947Z,71.44
2019-02-09T23:16:49.059Z,71.34
2019-02-09T23:21:44.962Z,71.52
2019-02-09T23:26:40.856Z,71.89
2019-02-09T23:31:36.764Z,71.81
2019-02-09T23:36:32.769Z,72.02
2019-02-09T23:41:28.739Z,71.99
2019-02-09T23:46:24.651Z,72.25
2019-02-09T23:51:20.663Z,71.91
2019-02-09T23:56:16.822Z,71.79
